Time;durP1;ratioP1;P1;durP2;ratioP2;P2;SDS_P1;SDS_P2;PMS_P1;PMS_P2;Temp;Humidity;BMP_temperature;BMP_pressure;BME280_temperature;BME280_humidity;BME280_pressure;Samples;Min_cycle;Max_cycle;Signal;HPM_P1;HPM_P2
2023/08/03 00:01:28;;;;;;;24.27;20.02;;;;;;;28.73;100.00;97299.38;4752434;30;20056;-65
2023/08/03 00:04:00;;;;;;;25.50;20.45;;;;;;;28.76;100.00;97298.72;4753921;30;20056;-64
2023/08/03 00:06:30;;;;;;;26.92;20.17;;;;;;;28.73;100.00;97293.94;4759193;30;20507;-65
2023/08/03 00:08:59;;;;;;;31.35;23.10;;;;;;;28.63;100.00;97297.13;4753634;30;20079;-64
2023/08/03 00:11:29;;;;;;;26.52;21.65;;;;;;;28.72;100.00;97286.13;4751230;30;20063;-64
2023/08/03 00:13:58;;;;;;;28.38;20.88;;;;;;;28.74;100.00;97286.56;4752978;30;20056;-64
2023/08/03 00:16:28;;;;;;;29.75;21.05;;;;;;;28.74;100.00;97292.81;4755043;30;20056;-65
2023/08/03 00:18:57;;;;;;;28.02;21.10;;;;;;;28.74;100.00;97284.63;4754222;30;20052;-64
2023/08/03 00:21:27;;;;;;;24.70;19.30;;;;;;;28.74;100.00;97287.34;4750414;30;20063;-64
2023/08/03 00:23:56;;;;;;;23.45;19.00;;;;;;;28.72;100.00;97306.00;4750935;30;20051;-64
2023/08/03 00:26:26;;;;;;;26.90;21.90;;;;;;;28.69;100.00;97327.63;4751320;30;20048;-64
2023/08/03 00:28:56;;;;;;;29.38;20.55;;;;;;;28.76;100.00;97360.59;4759517;30;20063;-65
2023/08/03 00:31:25;;;;;;;24.20;18.95;;;;;;;28.68;100.00;97366.94;4750806;30;20066;-64
2023/08/03 00:33:55;;;;;;;21.70;15.00;;;;;;;28.58;100.00;97371.72;4766766;30;20068;-64
2023/08/03 00:36:25;;;;;;;16.40;14.18;;;;;;;28.63;100.00;97365.25;4760120;30;20373;-64
2023/08/03 00:38:54;;;;;;;26.65;20.02;;;;;;;28.55;100.00;97355.25;4766810;30;20063;-65
2023/08/03 00:41:23;;;;;;;26.70;19.40;;;;;;;28.55;100.00;97358.75;4753619;30;20052;-63
2023/08/03 00:43:53;;;;;;;26.13;19.92;;;;;;;28.61;100.00;97362.06;4754283;30;20071;-64
2023/08/03 00:46:22;;;;;;;25.45;20.48;;;;;;;28.52;100.00;97364.91;4751290;30;20059;-63
2023/08/03 00:48:52;;;;;;;24.60;20.00;;;;;;;28.54;100.00;97357.19;4753692;30;20162;-63
2023/08/03 00:51:22;;;;;;;24.70;21.90;;;;;;;28.41;100.00;97357.53;4752293;30;20056;-62
2023/08/03 00:53:52;;;;;;;26.23;22.83;;;;;;;28.41;100.00;97333.81;4750306;30;20178;-63
2023/08/03 00:56:21;;;;;;;24.17;19.85;;;;;;;28.40;100.00;97334.97;4751063;30;20070;-63
2023/08/03 00:58:51;;;;;;;23.05;18.35;;;;;;;28.32;100.00;97333.16;4750908;30;20066;-63
2023/08/03 01:01:20;;;;;;;18.45;14.50;;;;;;;28.04;100.00;97324.81;4742960;30;20485;-62
2023/08/03 01:03:52;;;;;;;15.70;13.50;;;;;;;27.94;100.00;97329.91;4750052;30;20724;-64
2023/08/03 01:06:22;;;;;;;17.15;12.75;;;;;;;28.05;100.00;97331.88;4751854;30;20051;-64
2023/08/03 01:08:54;;;;;;;13.35;11.10;;;;;;;27.81;100.00;97331.81;4749132;30;20056;-64
2023/08/03 01:11:24;;;;;;;13.48;11.93;;;;;;;27.88;100.00;97334.78;4749111;30;20136;-64
2023/08/03 01:13:54;;;;;;;14.68;11.88;;;;;;;27.94;100.00;97338.06;4745847;30;20048;-64
2023/08/03 01:16:25;;;;;;;13.45;11.13;;;;;;;28.00;100.00;97353.88;4753882;30;20813;-64
2023/08/03 01:18:55;;;;;;;13.50;11.48;;;;;;;28.11;100.00;97368.63;4749314;30;20728;-64
2023/08/03 01:21:27;;;;;;;13.00;10.80;;;;;;;28.17;100.00;97379.31;4739038;30;20051;-64
2023/08/03 01:23:57;;;;;;;15.43;10.75;;;;;;;28.05;100.00;97383.59;4746985;30;20052;-64
2023/08/03 01:26:27;;;;;;;11.18;9.85;;;;;;;28.06;100.00;97379.72;4749357;30;20052;-64
2023/08/03 01:28:57;;;;;;;13.07;9.90;;;;;;;28.06;100.00;97377.00;4751684;30;20060;-63
2023/08/03 01:31:26;;;;;;;10.60;9.50;;;;;;;28.07;100.00;97385.94;4750155;30;20056;-63
2023/08/03 01:33:57;;;;;;;11.77;10.10;;;;;;;28.18;100.00;97395.31;4752274;30;20051;-64
2023/08/03 01:36:26;;;;;;;10.48;8.32;;;;;;;28.17;100.00;97401.88;4760353;30;20138;-64
2023/08/03 01:39:09;;;;;;;9.82;8.82;;;;;;;28.16;100.00;97391.31;4747129;30;20495;-64
2023/08/03 01:41:41;;;;;;;11.25;8.25;;;;;;;28.20;100.00;97390.31;4753028;30;20051;-64
2023/08/03 01:44:27;;;;;;;9.00;8.10;;;;;;;28.25;100.00;97390.09;4755971;30;20047;-64
2023/08/03 01:46:58;;;;;;;9.57;7.85;;;;;;;28.27;100.00;97385.13;4761048;30;20055;-64
2023/08/03 01:49:30;;;;;;;9.10;7.45;;;;;;;28.26;100.00;97388.16;4744309;30;20059;-65
2023/08/03 01:51:59;;;;;;;10.45;8.13;;;;;;;28.22;100.00;97393.50;4759882;30;20051;-64
2023/08/03 01:54:29;;;;;;;10.43;7.60;;;;;;;28.31;100.00;97388.75;4752552;30;20052;-64
2023/08/03 01:56:58;;;;;;;9.52;7.35;;;;;;;28.24;100.00;97390.41;4748975;30;20056;-64
2023/08/03 01:59:27;;;;;;;11.88;7.20;;;;;;;28.41;100.00;97395.69;4748808;30;20079;-65
2023/08/03 02:01:57;;;;;;;11.60;6.88;;;;;;;28.40;100.00;97397.59;4752603;30;20056;-65
2023/08/03 02:04:26;;;;;;;12.00;7.93;;;;;;;28.42;100.00;97405.41;4754213;30;20052;-64
2023/08/03 02:07:07;;;;;;;8.52;7.68;;;;;;;28.50;100.00;97399.09;4758123;30;20170;-65
2023/08/03 02:09:36;;;;;;;14.02;8.75;;;;;;;28.44;100.00;97406.69;4751551;30;20063;-64
2023/08/03 02:12:06;;;;;;;9.32;7.57;;;;;;;28.31;100.00;97399.63;4740634;30;20047;-65
2023/08/03 02:14:36;;;;;;;9.57;7.50;;;;;;;28.41;100.00;97399.16;4744326;30;20574;-65
2023/08/03 02:17:06;;;;;;;8.98;8.05;;;;;;;28.50;100.00;97391.69;4750400;30;20064;-64
2023/08/03 02:19:37;;;;;;;8.23;7.30;;;;;;;28.42;100.00;97391.81;4759151;30;20059;-65
2023/08/03 02:22:06;;;;;;;8.88;6.80;;;;;;;28.49;100.00;97397.50;4752177;30;20059;-64
2023/08/03 02:24:36;;;;;;;8.75;6.30;;;;;;;28.57;100.00;97397.38;4750656;30;20432;-64
2023/08/03 02:27:06;;;;;;;8.35;6.40;;;;;;;28.29;100.00;97399.16;4751722;30;20052;-65
2023/08/03 02:29:35;;;;;;;7.07;6.38;;;;;;;28.39;100.00;97408.84;4751184;30;20064;-64
2023/08/03 02:32:05;;;;;;;10.05;6.22;;;;;;;28.34;100.00;97401.69;4759898;30;20445;-64
2023/08/03 02:34:36;;;;;;;7.97;5.97;;;;;;;28.40;100.00;97410.44;4764184;30;20063;-64
2023/08/03 02:37:06;;;;;;;8.93;5.38;;;;;;;28.48;100.00;97409.53;4759467;30;20051;-64
2023/08/03 02:39:36;;;;;;;7.68;5.80;;;;;;;28.49;100.00;97406.47;4753527;30;20167;-64
2023/08/03 02:42:06;;;;;;;6.57;5.40;;;;;;;28.72;100.00;97395.13;4766060;30;20060;-64
2023/08/03 02:44:40;;;;;;;8.43;5.43;;;;;;;28.89;100.00;97394.88;4758976;30;20079;-65
2023/08/03 02:47:12;;;;;;;13.23;5.40;;;;;;;29.02;100.00;97402.69;4756167;30;20088;-65
2023/08/03 02:49:51;;;;;;;10.00;5.35;;;;;;;29.16;100.00;97407.78;4757150;30;20056;-63
2023/08/03 02:52:20;;;;;;;10.40;6.03;;;;;;;29.26;100.00;97418.19;4748171;30;20065;-65
2023/08/03 02:54:50;;;;;;;5.25;4.55;;;;;;;29.22;100.00;97425.47;4748522;30;20059;-63
2023/08/03 02:57:22;;;;;;;9.65;5.53;;;;;;;29.05;100.00;97427.66;4750324;30;20056;-64
2023/08/03 02:59:54;;;;;;;7.72;5.60;;;;;;;29.06;100.00;97412.91;4754625;30;20059;-65
2023/08/03 03:02:24;;;;;;;17.17;12.02;;;;;;;28.95;100.00;97390.75;4743122;30;20064;-65
2023/08/03 03:04:55;;;;;;;28.10;20.58;;;;;;;28.97;100.00;97353.06;4749676;30;20473;-65
2023/08/03 03:07:24;;;;;;;30.45;22.60;;;;;;;28.96;100.00;97337.84;4765227;30;20074;-64
2023/08/03 03:09:57;;;;;;;50.28;34.33;;;;;;;29.07;100.00;97332.69;4757731;30;20519;-64
2023/08/03 03:12:26;;;;;;;58.95;43.90;;;;;;;29.07;100.00;97329.97;4764771;30;20190;-64
2023/08/03 03:14:56;;;;;;;61.60;44.15;;;;;;;29.09;100.00;97320.28;4751585;30;20066;-65
2023/08/03 03:17:25;;;;;;;48.80;37.72;;;;;;;29.14;100.00;97314.59;4750264;30;20052;-65
2023/08/03 03:19:58;;;;;;;33.47;26.23;;;;;;;29.10;100.00;97327.34;4750544;30;20647;-64
2023/08/03 03:22:29;;;;;;;33.72;26.55;;;;;;;29.01;100.00;97322.03;4753126;30;20150;-64
2023/08/03 03:24:58;;;;;;;34.33;25.77;;;;;;;29.02;100.00;97310.00;4755893;30;20105;-64
2023/08/03 03:27:28;;;;;;;33.80;25.50;;;;;;;29.22;100.00;97321.84;4756516;30;20075;-65
2023/08/03 03:29:57;;;;;;;28.00;22.42;;;;;;;29.32;100.00;97340.47;4760397;30;20067;-64
2023/08/03 03:32:27;;;;;;;20.83;16.63;;;;;;;29.23;100.00;97349.91;4748649;30;20055;-65
2023/08/03 03:34:57;;;;;;;19.52;15.27;;;;;;;29.15;100.00;97343.47;4754958;30;20059;-64
2023/08/03 03:37:26;;;;;;;20.42;15.20;;;;;;;29.40;100.00;97350.44;4757962;30;20052;-64
2023/08/03 03:39:57;;;;;;;20.45;16.33;;;;;;;29.56;100.00;97355.16;4758820;30;20204;-65
2023/08/03 03:42:35;;;;;;;22.35;15.48;;;;;;;29.69;100.00;97360.19;4760006;30;20062;-65
2023/08/03 03:45:07;;;;;;;19.45;15.15;;;;;;;29.59;100.00;97368.88;4759840;30;20059;-64
2023/08/03 03:47:37;;;;;;;21.55;15.85;;;;;;;29.66;100.00;97368.25;4766056;30;20048;-66
2023/08/03 03:50:07;;;;;;;21.60;16.60;;;;;;;29.77;100.00;97361.16;4760450;30;20629;-63
2023/08/03 03:52:37;;;;;;;22.50;17.70;;;;;;;29.88;100.00;97362.25;4755699;30;20062;-64
2023/08/03 03:55:08;;;;;;;23.35;17.80;;;;;;;29.88;100.00;97367.72;4752853;30;20059;-63
2023/08/03 03:57:40;;;;;;;26.02;19.20;;;;;;;29.96;100.00;97369.50;4767335;29;20067;-64
2023/08/03 04:00:10;;;;;;;30.77;22.35;;;;;;;29.97;100.00;97371.06;4761128;30;20070;-64
2023/08/03 04:02:42;;;;;;;32.08;23.45;;;;;;;30.06;100.00;97371.69;4758558;30;20071;-64
2023/08/03 04:05:18;;;;;;;30.70;22.50;;;;;;;30.12;100.00;97372.25;4760840;30;20052;-64
2023/08/03 04:07:48;;;;;;;29.08;21.88;;;;;;;30.31;100.00;97375.88;4758300;30;20052;-63
2023/08/03 04:10:17;;;;;;;33.17;21.42;;;;;;;30.41;100.00;97385.44;4767919;30;20056;-65
2023/08/03 04:12:46;;;;;;;32.08;24.85;;;;;;;30.66;100.00;97380.59;4754054;30;20544;-64
2023/08/03 04:15:20;;;;;;;28.92;21.92;;;;;;;30.90;100.00;97379.56;4760291;30;20063;-65
2023/08/03 04:17:49;;;;;;;30.13;19.70;;;;;;;31.13;100.00;97394.97;4740514;30;20070;-65
2023/08/03 04:20:26;;;;;;;30.67;18.70;;;;;;;31.32;100.00;97399.66;4744688;30;20489;-63
2023/08/03 04:22:55;;;;;;;32.30;17.33;;;;;;;31.19;100.00;97399.03;4754088;30;20054;-66
2023/08/03 04:25:25;;;;;;;26.85;16.10;;;;;;;31.20;100.00;97408.78;4744466;30;20098;-65
2023/08/03 04:28:02;;;;;;;25.70;16.27;;;;;;;31.37;100.00;97415.00;4755947;29;20438;-65
2023/08/03 04:30:37;;;;;;;26.85;16.73;;;;;;;31.31;100.00;97410.97;4769767;30;20051;-65
2023/08/03 04:33:07;;;;;;;27.73;16.42;;;;;;;31.19;100.00;97407.22;4749621;30;20071;-65
2023/08/03 04:35:38;;;;;;;30.33;17.52;;;;;;;31.45;100.00;97403.06;4761684;30;20158;-65
2023/08/03 04:38:11;;;;;;;25.92;16.85;;;;;;;31.25;100.00;97407.72;4760489;30;20631;-65
2023/08/03 04:40:48;;;;;;;21.45;15.77;;;;;;;31.34;100.00;97404.75;4760090;30;20068;-64
2023/08/03 04:43:21;;;;;;;21.65;15.27;;;;;;;31.25;100.00;97410.44;4753865;30;20063;-65
2023/08/03 04:45:51;;;;;;;25.38;16.40;;;;;;;31.36;100.00;97397.00;4756898;30;20050;-65
2023/08/03 04:48:20;;;;;;;26.50;16.60;;;;;;;31.31;100.00;97403.56;4744965;30;20055;-65
2023/08/03 04:50:51;;;;;;;25.27;15.70;;;;;;;31.31;100.00;97411.75;4754158;30;20063;-65
2023/08/03 04:53:23;;;;;;;22.08;17.00;;;;;;;31.61;100.00;97404.59;4754875;30;20147;-64
2023/08/03 04:55:53;;;;;;;20.35;15.23;;;;;;;31.87;100.00;97414.06;4742901;30;20075;-64
2023/08/03 04:58:24;;;;;;;33.22;16.05;;;;;;;31.78;100.00;97411.56;4768768;30;20052;-64
2023/08/03 05:00:53;;;;;;;22.30;15.48;;;;;;;31.86;100.00;97418.78;4753141;30;20048;-64
2023/08/03 05:03:24;;;;;;;23.85;15.85;;;;;;;31.88;100.00;97416.44;4749689;30;20056;-65
2023/08/03 05:05:53;;;;;;;28.20;16.98;;;;;;;32.02;100.00;97419.47;4735288;30;20051;-64
2023/08/03 05:08:24;;;;;;;30.83;16.90;;;;;;;32.08;100.00;97415.28;4753481;30;20052;-64
2023/08/03 05:10:54;;;;;;;32.95;17.27;;;;;;;32.22;100.00;97414.72;4746072;30;20539;-65
2023/08/03 05:13:23;;;;;;;34.47;15.77;;;;;;;32.32;100.00;97400.44;4749590;30;20062;-64
2023/08/03 05:15:53;;;;;;;28.65;17.15;;;;;;;32.29;100.00;97403.91;4753017;30;20044;-64
2023/08/03 05:18:22;;;;;;;25.67;16.75;;;;;;;32.47;100.00;97409.69;4749182;30;20185;-65
2023/08/03 05:20:51;;;;;;;21.63;16.60;;;;;;;32.54;98.33;97407.03;4749440;30;20432;-64
2023/08/03 05:23:20;;;;;;;26.27;17.05;;;;;;;32.77;99.02;97407.84;4762260;29;20056;-64
2023/08/03 05:25:59;;;;;;;23.60;15.80;;;;;;;32.92;98.52;97411.59;4762041;30;20090;-64
2023/08/03 05:28:31;;;;;;;30.48;18.10;;;;;;;32.58;96.93;97413.38;4750690;30;20067;-64
2023/08/03 05:31:01;;;;;;;29.83;16.60;;;;;;;32.85;98.18;97409.53;4765177;30;20469;-64
2023/08/03 05:33:30;;;;;;;30.75;16.75;;;;;;;32.89;98.58;97415.06;4753935;30;20067;-64
2023/08/03 05:36:00;;;;;;;31.58;18.23;;;;;;;33.06;99.15;97416.50;4754306;30;20055;-64
2023/08/03 05:38:29;;;;;;;25.02;18.45;;;;;;;32.96;99.23;97423.41;4748225;30;20064;-64
2023/08/03 05:40:58;;;;;;;27.52;16.60;;;;;;;33.09;99.07;97418.47;4746550;30;20056;-64
2023/08/03 05:43:28;;;;;;;27.35;17.90;;;;;;;33.10;97.56;97420.88;4763369;30;20052;-63
2023/08/03 05:46:01;;;;;;;31.58;18.50;;;;;;;33.20;98.68;97414.75;4742877;30;20205;-63
2023/08/03 05:48:31;;;;;;;28.77;18.27;;;;;;;33.39;97.65;97416.56;4745174;30;20178;-63
2023/08/03 05:51:03;;;;;;;22.15;16.33;;;;;;;33.41;100.00;97408.75;4762509;30;20079;-65
2023/08/03 05:53:33;;;;;;;28.55;17.15;;;;;;;33.11;97.17;97418.88;4735793;30;20048;-64
2023/08/03 05:56:10;;;;;;;31.55;17.00;;;;;;;33.30;95.33;97405.06;4746800;30;20057;-66
2023/08/03 05:58:40;;;;;;;29.27;16.08;;;;;;;33.58;96.79;97402.69;4766915;30;20057;-66
2023/08/03 06:01:12;;;;;;;39.15;17.17;;;;;;;33.61;95.22;97409.38;4751677;30;20093;-66
2023/08/03 06:03:46;;;;;;;44.72;17.60;;;;;;;33.65;97.11;97401.97;4746470;30;20076;-67
2023/08/03 06:06:18;;;;;;;31.02;17.50;;;;;;;33.65;93.90;97404.69;4730532;30;20056;-65
2023/08/03 06:08:57;;;;;;;;;;;;;;;33.44;94.19;97399.75;4741695;30;20064;-67
2023/08/03 06:11:27;;;;;;;34.65;19.02;;;;;;;33.73;95.04;97400.91;4747114;30;20055;-67
2023/08/03 06:13:57;;;;;;;25.27;17.83;;;;;;;33.63;94.62;97407.84;4751631;30;20122;-66
2023/08/03 06:16:29;;;;;;;37.25;19.83;;;;;;;33.40;92.32;97404.41;4745339;30;20059;-66
2023/08/03 06:18:59;;;;;;;29.48;19.35;;;;;;;33.32;94.85;97406.28;4747128;30;20052;-67
2023/08/03 06:21:28;;;;;;;24.73;18.52;;;;;;;33.47;98.30;97400.97;4740795;30;20048;-67
2023/08/03 06:23:59;;;;;;;37.05;22.55;;;;;;;33.47;94.32;97396.25;4751190;30;20136;-67
2023/08/03 06:26:32;;;;;;;39.67;24.15;;;;;;;33.60;96.64;97394.84;4744928;30;20068;-67
2023/08/03 06:29:05;;;;;;;;;;;;;;;33.82;97.56;97399.44;4747982;30;20091;-67
2023/08/03 06:31:37;;;;;;;35.08;25.00;;;;;;;33.90;94.21;97396.78;4748539;30;19926;-67
2023/08/03 06:34:14;;;;;;;33.35;23.50;;;;;;;34.08;93.48;97401.25;4748568;30;20056;-65
2023/08/03 06:36:44;;;;;;;40.83;25.95;;;;;;;34.04;92.54;97394.16;4747447;30;20048;-68
2023/08/03 06:39:13;;;;;;;38.38;24.70;;;;;;;34.13;92.63;97397.38;4749907;30;20051;-64
2023/08/03 06:41:42;;;;;;;42.15;24.83;;;;;;;34.43;93.94;97389.84;4750851;30;20067;-67
2023/08/03 06:44:16;;;;;;;45.90;26.92;;;;;;;34.55;90.69;97392.28;4733157;30;20076;-68
2023/08/03 06:46:46;;;;;;;45.22;26.95;;;;;;;34.75;91.34;97381.03;4750005;30;20056;-69
2023/08/03 06:49:15;;;;;;;37.63;28.00;;;;;;;34.81;90.26;97387.78;4747477;30;20071;-69
2023/08/03 06:51:45;;;;;;;38.95;26.92;;;;;;;34.89;91.01;97386.63;4746885;30;20067;-68
2023/08/03 06:54:14;;;;;;;33.85;26.50;;;;;;;34.96;89.51;97383.94;4747513;30;20048;-68
2023/08/03 06:56:44;;;;;;;36.63;25.70;;;;;;;35.10;91.11;97382.03;4745638;30;20083;-65
2023/08/03 06:59:20;;;;;;;40.08;26.73;;;;;;;35.00;88.29;97374.53;4747725;30;20154;-65
2023/08/03 07:01:50;;;;;;;43.40;27.30;;;;;;;34.86;87.20;97377.22;4737325;30;20052;-67
2023/08/03 07:04:20;;;;;;;40.83;26.90;;;;;;;34.57;87.50;97375.38;4762139;30;20059;-68
2023/08/03 07:06:49;;;;;;;40.95;28.30;;;;;;;34.44;87.95;97368.59;4750758;30;20175;-69
2023/08/03 07:09:19;;;;;;;40.50;25.77;;;;;;;34.41;91.30;97372.94;4737425;30;20681;-67
2023/08/03 07:11:48;;;;;;;40.72;25.48;;;;;;;34.43;94.33;97365.09;4744981;30;20056;-66
2023/08/03 07:14:18;;;;;;;55.45;25.60;;;;;;;34.39;90.38;97369.00;4743399;30;20294;-67
2023/08/03 07:16:47;;;;;;;36.20;25.15;;;;;;;34.32;91.33;97360.66;4747283;30;20382;-69
2023/08/03 07:19:18;;;;;;;34.78;21.45;;;;;;;34.35;89.49;97357.94;4748638;30;20060;-68
2023/08/03 07:21:48;;;;;;;30.88;19.95;;;;;;;34.49;90.62;97366.31;4741921;30;20123;-67
2023/08/03 07:24:17;;;;;;;28.27;19.17;;;;;;;34.53;89.62;97372.63;4744296;30;20063;-66
2023/08/03 07:26:49;;;;;;;40.78;19.98;;;;;;;34.50;87.85;97364.34;4743752;30;20075;-67
2023/08/03 07:29:19;;;;;;;33.10;18.20;;;;;;;34.64;89.34;97364.44;4746442;30;20058;-67
2023/08/03 07:31:49;;;;;;;35.65;18.55;;;;;;;34.64;89.84;97365.25;4756390;30;20067;-65
2023/08/03 07:34:19;;;;;;;33.97;17.85;;;;;;;34.73;91.06;97359.44;4744020;30;20056;-68
2023/08/03 07:36:56;;;;;;;30.45;19.25;;;;;;;34.44;88.96;97355.66;4736535;30;20066;-65
2023/08/03 07:39:26;;;;;;;27.60;16.50;;;;;;;34.56;92.50;97352.63;4740829;30;20154;-66
2023/08/03 07:41:56;;;;;;;28.95;17.23;;;;;;;34.45;89.40;97351.75;4738594;30;20072;-65
2023/08/03 07:44:25;;;;;;;34.65;17.02;;;;;;;34.35;91.74;97346.16;4743983;30;20067;-66
2023/08/03 07:47:14;;;;;;;27.20;14.35;;;;;;;34.78;90.58;97353.56;4747297;30;20103;-66
2023/08/03 07:49:44;;;;;;;33.22;14.73;;;;;;;34.72;88.90;97350.38;4746993;30;20056;-66
2023/08/03 07:52:13;;;;;;;28.23;14.88;;;;;;;34.85;88.48;97353.59;4750905;30;20051;-67
2023/08/03 07:54:43;;;;;;;25.88;15.02;;;;;;;35.18;88.77;97355.38;4745172;30;20105;-68
2023/08/03 07:57:15;;;;;;;34.95;14.48;;;;;;;35.18;88.33;97354.59;4738879;30;20083;-71
2023/08/03 07:59:48;;;;;;;;;;;;;;;34.99;86.79;97347.38;4743022;30;20048;-69
2023/08/03 08:02:19;;;;;;;36.95;14.93;;;;;;;34.90;84.93;97344.19;4746738;30;19940;-71
2023/08/03 08:04:51;;;;;;;22.33;13.48;;;;;;;35.04;87.80;97342.31;4748911;30;20066;-69
2023/08/03 08:07:20;;;;;;;25.15;13.35;;;;;;;35.13;89.67;97337.25;4747848;30;20472;-70
2023/08/03 08:09:53;;;;;;;26.00;13.35;;;;;;;35.18;88.44;97340.84;4755661;30;20063;-71
2023/08/03 08:12:23;;;;;;;26.20;12.35;;;;;;;35.26;87.13;97339.69;4742474;30;21001;-69
2023/08/03 08:14:57;;;;;;;30.65;13.45;;;;;;;35.37;86.11;97341.28;4749372;30;20059;-67
2023/08/03 08:17:26;;;;;;;27.80;13.30;;;;;;;35.28;83.93;97340.84;4748559;30;20052;-74
2023/08/03 08:19:57;;;;;;;22.35;13.15;;;;;;;35.24;87.63;97334.56;4754042;30;20097;-69
2023/08/03 08:22:26;;;;;;;24.20;12.25;;;;;;;35.10;83.06;97335.25;4750479;30;20681;-69
2023/08/03 08:24:56;;;;;;;29.48;11.95;;;;;;;35.27;85.82;97336.56;4751766;30;20133;-69
2023/08/03 08:27:26;;;;;;;28.67;11.07;;;;;;;35.24;84.62;97336.50;4752004;30;20293;-69
2023/08/03 08:29:55;;;;;;;24.83;11.68;;;;;;;35.09;82.35;97330.16;4751734;30;20109;-69
2023/08/03 08:32:24;;;;;;;29.00;13.70;;;;;;;35.34;83.86;97338.53;4751502;30;20071;-69
2023/08/03 08:34:54;;;;;;;28.38;12.23;;;;;;;35.48;84.71;97325.59;4756306;30;20071;-69
2023/08/03 08:37:23;;;;;;;24.48;11.43;;;;;;;35.51;81.53;97340.53;4751128;30;20059;-69
2023/08/03 08:39:53;;;;;;;22.55;9.80;;;;;;;35.66;79.33;97333.16;4750274;30;20067;-70
2023/08/03 08:42:22;;;;;;;17.83;9.25;;;;;;;35.67;76.50;97327.25;4731379;30;20056;-71
2023/08/03 08:44:51;;;;;;;27.88;10.60;;;;;;;35.63;76.85;97314.63;4745361;30;20062;-70
2023/08/03 08:47:21;;;;;;;21.15;8.00;;;;;;;35.62;77.26;97324.06;4746979;30;20405;-69
2023/08/03 08:49:50;;;;;;;20.83;8.20;;;;;;;35.63;76.37;97322.88;4747682;30;20052;-69
2023/08/03 08:52:44;;;;;;;18.27;7.30;;;;;;;35.56;74.80;97316.16;4757861;30;20142;-69
2023/08/03 08:55:22;;;;;;;20.98;7.75;;;;;;;35.60;76.24;97322.47;4747033;30;20062;-68
2023/08/03 08:57:55;;;;;;;24.13;7.70;;;;;;;35.62;77.00;97308.31;4743854;30;20202;-68
2023/08/03 09:00:28;;;;;;;22.75;8.10;;;;;;;35.52;77.55;97306.31;4740907;30;20067;-68
2023/08/03 09:03:02;;;;;;;24.13;7.75;;;;;;;35.59;78.33;97307.09;4748184;30;20113;-68
2023/08/03 09:05:33;;;;;;;20.88;7.90;;;;;;;35.72;78.01;97315.03;4750848;30;20056;-67
2023/08/03 09:08:13;;;;;;;19.25;8.07;;;;;;;35.49;75.31;97299.63;4743607;30;20048;-68
2023/08/03 09:10:52;;;;;;;23.55;9.63;;;;;;;35.59;76.53;97309.88;4747257;30;20052;-69
2023/08/03 09:13:35;;;;;;;21.83;7.63;;;;;;;35.60;76.91;97303.19;4743770;30;20106;-68
2023/08/03 09:16:04;;;;;;;20.08;6.65;;;;;;;35.68;74.91;97305.97;4744362;30;20055;-67
2023/08/03 09:18:44;;;;;;;17.48;6.95;;;;;;;35.64;73.83;97294.94;4747556;30;20191;-68
2023/08/03 09:21:19;;;;;;;21.70;8.10;;;;;;;35.73;77.21;97295.34;4743939;30;20127;-67
2023/08/03 09:23:52;;;;;;;22.50;7.95;;;;;;;35.75;74.76;97290.25;4760739;30;20047;-68
2023/08/03 09:26:28;;;;;;;20.58;7.57;;;;;;;35.71;74.68;97291.44;4741359;30;20067;-67
2023/08/03 09:29:10;;;;;;;22.38;7.28;;;;;;;35.81;74.14;97282.38;4742336;30;20490;-67
2023/08/03 09:32:08;;;;;;;18.15;7.63;;;;;;;35.76;74.23;97285.53;4728391;30;20093;-67
2023/08/03 09:34:56;;;;;;;25.17;8.00;;;;;;;35.68;75.39;97279.22;4746004;30;20067;-67
2023/08/03 09:37:36;;;;;;;24.50;7.85;;;;;;;35.69;76.20;97280.78;4742515;30;20552;-68
2023/08/03 09:40:09;;;;;;;;;;;;;;;35.61;75.59;97268.16;4742990;30;20062;-69
2023/08/03 09:42:40;;;;;;;19.20;8.50;;;;;;;35.51;78.75;97263.41;4745023;30;20733;-67
2023/08/03 09:45:11;;;;;;;21.45;8.80;;;;;;;35.13;78.58;97264.88;4749155;30;21352;-68
2023/08/03 09:47:43;;;;;;;;;;;;;;;35.04;78.93;97267.22;4717686;30;20056;-66
2023/08/03 09:50:12;;;;;;;22.95;9.45;;;;;;;34.91;81.20;97264.03;4742545;30;19930;-74
2023/08/03 09:52:48;;;;;;;26.35;10.88;;;;;;;34.69;81.87;97257.63;4746433;29;20044;-70
2023/08/03 09:55:28;;;;;;;21.70;10.40;;;;;;;34.60;83.20;97262.66;4739523;30;20060;-67
2023/08/03 09:58:06;;;;;;;25.33;9.60;;;;;;;34.50;83.49;97255.13;4748583;30;20056;-68
2023/08/03 10:00:37;;;;;;;21.20;9.30;;;;;;;34.45;85.45;97252.75;4743632;30;20060;-67
2023/08/03 10:03:14;;;;;;;26.93;10.77;;;;;;;34.40;87.18;97250.34;4747747;30;20075;-67
2023/08/03 10:06:26;;;;;;;21.92;9.93;;;;;;;34.40;86.21;97250.34;4745348;30;20055;-68
2023/08/03 10:09:21;;;;;;;24.85;9.57;;;;;;;34.35;87.65;97247.97;4749063;30;20060;-69
2023/08/03 10:11:53;;;;;;;25.05;9.35;;;;;;;34.25;87.09;97244.00;4730641;30;20789;-64
2023/08/03 10:14:28;;;;;;;;;;;;;;;34.15;86.27;97241.13;4731315;29;20064;-65
2023/08/03 10:17:00;;;;;;;23.73;8.35;;;;;;;34.16;84.97;97243.53;4742320;30;19941;-64
2023/08/03 10:19:31;;;;;;;22.05;8.70;;;;;;;34.22;87.99;97238.47;4744381;30;20059;-68
2023/08/03 10:22:01;;;;;;;18.00;7.35;;;;;;;34.30;86.69;97240.06;4742243;30;20393;-69
2023/08/03 10:24:31;;;;;;;23.23;8.05;;;;;;;34.40;86.46;97236.59;4743018;30;20056;-69
2023/08/03 10:27:20;;;;;;;20.55;7.32;;;;;;;34.41;88.11;97234.66;4740410;30;20545;-68
2023/08/03 10:29:57;;;;;;;20.98;7.10;;;;;;;34.48;85.41;97232.72;4761298;30;20147;-69
2023/08/03 10:32:28;;;;;;;19.83;7.63;;;;;;;34.43;85.21;97224.06;4742640;30;20044;-67
2023/08/03 10:35:38;;;;;;;22.65;7.10;;;;;;;34.30;85.66;97234.56;4745667;30;20135;-69
2023/08/03 10:38:28;;;;;;;20.15;6.45;;;;;;;34.33;84.94;97231.06;4758879;30;20085;-70
2023/08/03 10:41:22;;;;;;;24.60;6.53;;;;;;;34.33;85.47;97227.53;4748976;30;20075;-70
2023/08/03 10:44:07;;;;;;;19.42;6.35;;;;;;;34.45;87.43;97224.44;4737742;30;20059;-68
2023/08/03 10:46:38;;;;;;;21.98;5.75;;;;;;;34.51;84.98;97220.97;4747183;30;20067;-68
2023/08/03 10:49:20;;;;;;;24.02;6.50;;;;;;;34.61;84.86;97217.47;4744681;30;20051;-69
2023/08/03 10:51:51;;;;;;;24.42;6.35;;;;;;;34.77;82.61;97210.88;4751164;30;20147;-69
2023/08/03 10:54:29;;;;;;;21.65;7.25;;;;;;;34.82;82.25;97208.56;4751324;30;20302;-72
2023/08/03 10:57:05;;;;;;;24.48;6.57;;;;;;;34.77;81.10;97214.44;4746296;30;20120;-69
2023/08/03 10:59:43;;;;;;;27.70;6.38;;;;;;;34.79;80.67;97209.31;4743552;30;20055;-68
2023/08/03 11:02:20;;;;;;;21.73;5.65;;;;;;;34.79;82.83;97209.31;4752180;30;20062;-67
2023/08/03 11:04:51;;;;;;;21.45;5.80;;;;;;;34.79;78.70;97200.28;4747796;30;20153;-67
2023/08/03 11:07:34;;;;;;;19.25;5.18;;;;;;;34.86;78.63;97198.34;4745338;30;20063;-68
2023/08/03 11:10:06;;;;;;;17.48;5.00;;;;;;;34.91;74.22;97197.19;4715439;30;20052;-68
2023/08/03 11:12:36;;;;;;;30.02;6.45;;;;;;;34.90;73.83;97193.63;4748262;30;20056;-69
2023/08/03 11:15:07;;;;;;;22.17;5.82;;;;;;;34.88;76.17;97195.19;4749608;30;20135;-68
2023/08/03 11:17:37;;;;;;;17.73;4.68;;;;;;;34.88;76.40;97189.69;4745879;30;20056;-68
2023/08/03 11:20:09;;;;;;;16.67;5.47;;;;;;;34.85;78.26;97187.72;4747342;30;20722;-69
2023/08/03 11:22:39;;;;;;;17.95;6.07;;;;;;;34.76;75.75;97193.59;4746621;30;20494;-69
2023/08/03 11:25:09;;;;;;;18.67;5.03;;;;;;;34.69;76.01;97188.88;4743702;30;20197;-67
2023/08/03 11:27:42;;;;;;;15.73;4.90;;;;;;;34.62;75.17;97185.25;4747971;30;20594;-68
2023/08/03 11:30:11;;;;;;;;;;;;;;;34.54;75.25;97178.94;4746976;30;20056;-67
2023/08/03 11:32:40;;;;;;;16.75;4.97;;;;;;;34.52;73.84;97175.78;4749222;30;20036;-69
2023/08/03 11:35:10;;;;;;;15.80;4.05;;;;;;;34.50;77.00;97172.63;4745332;30;20048;-68
2023/08/03 11:37:40;;;;;;;19.30;5.13;;;;;;;34.47;77.03;97181.66;4747432;30;20862;-67
2023/08/03 11:40:11;;;;;;;19.52;4.03;;;;;;;34.42;74.12;97182.03;4745570;30;20055;-69
2023/08/03 11:42:43;;;;;;;16.05;4.68;;;;;;;34.42;75.72;97181.25;4745624;30;20052;-67